sensor_id;sensor_type;location;lat;lon;timestamp;temperature;humidity
65044;DHT22;51617;48.158;16.464;2023-07-29T00:01:15;24.40;85.30
65044;DHT22;51617;48.158;16.464;2023-07-29T00:03:41;24.40;85.60
65044;DHT22;51617;48.158;16.464;2023-07-29T00:06:06;24.40;85.60
65044;DHT22;51617;48.158;16.464;2023-07-29T00:08:32;24.30;85.70
65044;DHT22;51617;48.158;16.464;2023-07-29T00:10:57;24.30;85.80
65044;DHT22;51617;48.158;16.464;2023-07-29T00:13:23;24.30;86.00
65044;DHT22;51617;48.158;16.464;2023-07-29T00:15:48;24.30;86.10
65044;DHT22;51617;48.158;16.464;2023-07-29T00:18:14;24.30;86.20
65044;DHT22;51617;48.158;16.464;2023-07-29T00:20:39;24.20;86.40
65044;DHT22;51617;48.158;16.464;2023-07-29T00:23:05;24.30;86.40
65044;DHT22;51617;48.158;16.464;2023-07-29T00:25:30;24.30;86.50
65044;DHT22;51617;48.158;16.464;2023-07-29T00:27:56;24.30;86.50
65044;DHT22;51617;48.158;16.464;2023-07-29T00:30:22;24.30;86.40
65044;DHT22;51617;48.158;16.464;2023-07-29T00:32:47;24.30;86.40
65044;DHT22;51617;48.158;16.464;2023-07-29T00:35:13;24.30;86.40
65044;DHT22;51617;48.158;16.464;2023-07-29T00:37:38;24.30;86.60
65044;DHT22;51617;48.158;16.464;2023-07-29T00:40:07;24.20;86.70
65044;DHT22;51617;48.158;16.464;2023-07-29T00:42:34;24.20;86.80
65044;DHT22;51617;48.158;16.464;2023-07-29T00:45:00;24.30;86.90
65044;DHT22;51617;48.158;16.464;2023-07-29T00:47:25;24.30;86.90
65044;DHT22;51617;48.158;16.464;2023-07-29T00:49:51;24.30;86.90
65044;DHT22;51617;48.158;16.464;2023-07-29T00:52:16;24.30;87.00
65044;DHT22;51617;48.158;16.464;2023-07-29T00:54:42;24.30;87.00
65044;DHT22;51617;48.158;16.464;2023-07-29T00:57:08;24.20;87.10
65044;DHT22;51617;48.158;16.464;2023-07-29T00:59:34;24.20;87.10
65044;DHT22;51617;48.158;16.464;2023-07-29T01:02:00;24.30;87.10
65044;DHT22;51617;48.158;16.464;2023-07-29T01:04:26;24.30;87.10
65044;DHT22;51617;48.158;16.464;2023-07-29T01:09:55;24.20;87.30
65044;DHT22;51617;48.158;16.464;2023-07-29T01:15:12;24.20;87.60
65044;DHT22;51617;48.158;16.464;2023-07-29T01:18:02;24.10;88.10
65044;DHT22;51617;48.158;16.464;2023-07-29T01:20:26;24.10;88.60
65044;DHT22;51617;48.158;16.464;2023-07-29T01:22:53;24.00;89.00
65044;DHT22;51617;48.158;16.464;2023-07-29T01:25:18;23.80;89.30
65044;DHT22;51617;48.158;16.464;2023-07-29T01:27:44;23.70;89.70
65044;DHT22;51617;48.158;16.464;2023-07-29T01:30:10;23.60;90.10
65044;DHT22;51617;48.158;16.464;2023-07-29T01:32:46;23.60;90.20
65044;DHT22;51617;48.158;16.464;2023-07-29T01:37:41;23.40;90.70
65044;DHT22;51617;48.158;16.464;2023-07-29T01:40:10;23.30;90.70
65044;DHT22;51617;48.158;16.464;2023-07-29T01:42:35;23.30;90.80
65044;DHT22;51617;48.158;16.464;2023-07-29T01:45:01;23.40;90.90
65044;DHT22;51617;48.158;16.464;2023-07-29T01:47:26;23.40;90.90
65044;DHT22;51617;48.158;16.464;2023-07-29T01:49:52;23.50;90.80
65044;DHT22;51617;48.158;16.464;2023-07-29T01:52:17;23.50;90.70
65044;DHT22;51617;48.158;16.464;2023-07-29T01:54:43;23.60;90.60
65044;DHT22;51617;48.158;16.464;2023-07-29T01:57:09;23.60;90.60
65044;DHT22;51617;48.158;16.464;2023-07-29T01:59:34;23.70;90.60
65044;DHT22;51617;48.158;16.464;2023-07-29T02:01:59;23.70;90.50
65044;DHT22;51617;48.158;16.464;2023-07-29T02:04:25;23.70;90.50
65044;DHT22;51617;48.158;16.464;2023-07-29T02:06:50;23.70;90.50
65044;DHT22;51617;48.158;16.464;2023-07-29T02:09:16;23.70;90.70
65044;DHT22;51617;48.158;16.464;2023-07-29T02:11:41;23.70;90.70
65044;DHT22;51617;48.158;16.464;2023-07-29T02:14:07;23.70;90.70
65044;DHT22;51617;48.158;16.464;2023-07-29T02:16:32;23.70;90.70
65044;DHT22;51617;48.158;16.464;2023-07-29T02:18:59;23.60;90.80
65044;DHT22;51617;48.158;16.464;2023-07-29T02:21:25;23.60;90.80
65044;DHT22;51617;48.158;16.464;2023-07-29T02:23:50;23.70;90.80
65044;DHT22;51617;48.158;16.464;2023-07-29T02:26:16;23.60;90.70
65044;DHT22;51617;48.158;16.464;2023-07-29T02:28:42;23.70;90.50
65044;DHT22;51617;48.158;16.464;2023-07-29T02:33:39;23.70;90.30
65044;DHT22;51617;48.158;16.464;2023-07-29T02:36:04;23.60;90.30
65044;DHT22;51617;48.158;16.464;2023-07-29T02:38:30;23.60;90.10
65044;DHT22;51617;48.158;16.464;2023-07-29T02:40:55;23.60;90.00
65044;DHT22;51617;48.158;16.464;2023-07-29T02:43:21;23.60;90.10
65044;DHT22;51617;48.158;16.464;2023-07-29T02:45:46;23.60;90.10
65044;DHT22;51617;48.158;16.464;2023-07-29T02:48:12;23.60;89.20
65044;DHT22;51617;48.158;16.464;2023-07-29T02:50:37;23.50;89.00
65044;DHT22;51617;48.158;16.464;2023-07-29T02:53:03;23.60;88.70
65044;DHT22;51617;48.158;16.464;2023-07-29T02:55:28;23.50;88.30
65044;DHT22;51617;48.158;16.464;2023-07-29T02:57:54;23.50;87.80
65044;DHT22;51617;48.158;16.464;2023-07-29T03:00:19;23.50;87.20
65044;DHT22;51617;48.158;16.464;2023-07-29T03:02:45;23.50;86.90
65044;DHT22;51617;48.158;16.464;2023-07-29T03:05:10;23.50;86.60
65044;DHT22;51617;48.158;16.464;2023-07-29T03:07:36;23.50;86.50
65044;DHT22;51617;48.158;16.464;2023-07-29T03:10:01;23.50;86.30
65044;DHT22;51617;48.158;16.464;2023-07-29T03:12:27;23.50;85.80
65044;DHT22;51617;48.158;16.464;2023-07-29T03:14:52;23.60;85.50
65044;DHT22;51617;48.158;16.464;2023-07-29T03:17:18;23.60;85.30
65044;DHT22;51617;48.158;16.464;2023-07-29T03:19:43;23.60;85.10
65044;DHT22;51617;48.158;16.464;2023-07-29T03:22:09;23.60;84.70
65044;DHT22;51617;48.158;16.464;2023-07-29T03:24:34;23.60;84.50
65044;DHT22;51617;48.158;16.464;2023-07-29T03:27:00;23.70;84.20
65044;DHT22;51617;48.158;16.464;2023-07-29T03:29:25;23.60;83.90
65044;DHT22;51617;48.158;16.464;2023-07-29T03:31:51;23.60;83.70
65044;DHT22;51617;48.158;16.464;2023-07-29T03:34:17;23.70;83.50
65044;DHT22;51617;48.158;16.464;2023-07-29T03:36:42;23.70;83.20
65044;DHT22;51617;48.158;16.464;2023-07-29T03:39:08;23.70;83.40
65044;DHT22;51617;48.158;16.464;2023-07-29T03:41:34;23.70;83.00
65044;DHT22;51617;48.158;16.464;2023-07-29T03:43:59;23.70;83.00
65044;DHT22;51617;48.158;16.464;2023-07-29T03:46:25;23.80;83.10
65044;DHT22;51617;48.158;16.464;2023-07-29T03:48:50;23.80;83.10
65044;DHT22;51617;48.158;16.464;2023-07-29T03:51:16;23.80;83.10
65044;DHT22;51617;48.158;16.464;2023-07-29T03:53:41;23.80;83.30
65044;DHT22;51617;48.158;16.464;2023-07-29T03:56:07;23.70;83.40
65044;DHT22;51617;48.158;16.464;2023-07-29T03:58:33;23.80;83.50
65044;DHT22;51617;48.158;16.464;2023-07-29T04:00:58;23.70;83.50
65044;DHT22;51617;48.158;16.464;2023-07-29T04:03:24;23.70;83.60
65044;DHT22;51617;48.158;16.464;2023-07-29T04:05:49;23.70;83.70
65044;DHT22;51617;48.158;16.464;2023-07-29T04:08:15;23.70;83.50
65044;DHT22;51617;48.158;16.464;2023-07-29T04:10:40;23.70;83.70
65044;DHT22;51617;48.158;16.464;2023-07-29T04:13:06;23.70;83.70
65044;DHT22;51617;48.158;16.464;2023-07-29T04:15:31;23.70;83.70
65044;DHT22;51617;48.158;16.464;2023-07-29T04:17:57;23.70;83.90
65044;DHT22;51617;48.158;16.464;2023-07-29T04:20:22;23.60;83.70
65044;DHT22;51617;48.158;16.464;2023-07-29T04:22:48;23.70;83.60
65044;DHT22;51617;48.158;16.464;2023-07-29T04:25:13;23.60;83.50
65044;DHT22;51617;48.158;16.464;2023-07-29T04:27:39;23.70;83.60
65044;DHT22;51617;48.158;16.464;2023-07-29T04:30:05;23.70;83.70
65044;DHT22;51617;48.158;16.464;2023-07-29T04:32:30;23.70;83.60
65044;DHT22;51617;48.158;16.464;2023-07-29T04:34:56;23.70;83.70
65044;DHT22;51617;48.158;16.464;2023-07-29T04:37:22;23.70;84.00
65044;DHT22;51617;48.158;16.464;2023-07-29T04:39:47;23.80;84.10
65044;DHT22;51617;48.158;16.464;2023-07-29T04:42:12;23.80;83.80
65044;DHT22;51617;48.158;16.464;2023-07-29T04:44:38;23.80;84.00
65044;DHT22;51617;48.158;16.464;2023-07-29T04:47:04;23.80;84.00
65044;DHT22;51617;48.158;16.464;2023-07-29T04:49:29;23.70;84.30
65044;DHT22;51617;48.158;16.464;2023-07-29T04:51:55;23.70;84.40
65044;DHT22;51617;48.158;16.464;2023-07-29T04:54:20;23.60;84.60
65044;DHT22;51617;48.158;16.464;2023-07-29T04:56:46;23.60;84.70
65044;DHT22;51617;48.158;16.464;2023-07-29T04:59:12;23.60;84.60
65044;DHT22;51617;48.158;16.464;2023-07-29T05:01:38;23.60;84.50
65044;DHT22;51617;48.158;16.464;2023-07-29T05:04:04;23.60;84.70
65044;DHT22;51617;48.158;16.464;2023-07-29T05:06:29;23.60;84.80
65044;DHT22;51617;48.158;16.464;2023-07-29T05:08:57;23.70;85.10
65044;DHT22;51617;48.158;16.464;2023-07-29T05:11:22;23.70;84.90
65044;DHT22;51617;48.158;16.464;2023-07-29T05:13:50;23.80;84.80
65044;DHT22;51617;48.158;16.464;2023-07-29T05:16:15;23.90;84.50
65044;DHT22;51617;48.158;16.464;2023-07-29T05:18:41;23.90;84.50
65044;DHT22;51617;48.158;16.464;2023-07-29T05:21:06;24.00;84.20
65044;DHT22;51617;48.158;16.464;2023-07-29T05:23:33;24.00;84.00
65044;DHT22;51617;48.158;16.464;2023-07-29T05:25:59;24.00;83.90
65044;DHT22;51617;48.158;16.464;2023-07-29T05:28:24;24.00;84.20
65044;DHT22;51617;48.158;16.464;2023-07-29T05:30:50;24.00;84.20
65044;DHT22;51617;48.158;16.464;2023-07-29T05:33:15;24.10;84.40
65044;DHT22;51617;48.158;16.464;2023-07-29T05:35:41;24.10;84.30
65044;DHT22;51617;48.158;16.464;2023-07-29T05:38:06;24.10;84.60
65044;DHT22;51617;48.158;16.464;2023-07-29T05:40:33;24.20;85.30
65044;DHT22;51617;48.158;16.464;2023-07-29T05:42:59;24.20;84.10
65044;DHT22;51617;48.158;16.464;2023-07-29T05:45:24;24.20;84.10
65044;DHT22;51617;48.158;16.464;2023-07-29T05:47:50;24.20;84.10
65044;DHT22;51617;48.158;16.464;2023-07-29T05:50:15;24.20;83.90
65044;DHT22;51617;48.158;16.464;2023-07-29T05:52:41;24.20;84.30
65044;DHT22;51617;48.158;16.464;2023-07-29T05:55:07;24.20;84.10
65044;DHT22;51617;48.158;16.464;2023-07-29T05:57:32;24.30;84.40
65044;DHT22;51617;48.158;16.464;2023-07-29T05:59:58;24.40;84.40
65044;DHT22;51617;48.158;16.464;2023-07-29T06:02:23;24.30;84.30
65044;DHT22;51617;48.158;16.464;2023-07-29T06:04:49;24.30;84.90
65044;DHT22;51617;48.158;16.464;2023-07-29T06:07:14;24.30;84.70
65044;DHT22;51617;48.158;16.464;2023-07-29T06:09:40;24.30;85.10
65044;DHT22;51617;48.158;16.464;2023-07-29T06:12:06;24.30;85.20
65044;DHT22;51617;48.158;16.464;2023-07-29T06:14:31;24.40;84.70
65044;DHT22;51617;48.158;16.464;2023-07-29T06:16:57;24.40;84.90
65044;DHT22;51617;48.158;16.464;2023-07-29T06:19:22;24.50;85.00
65044;DHT22;51617;48.158;16.464;2023-07-29T06:21:48;24.50;84.40
65044;DHT22;51617;48.158;16.464;2023-07-29T06:24:13;24.50;84.70
65044;DHT22;51617;48.158;16.464;2023-07-29T06:26:39;24.50;85.00
65044;DHT22;51617;48.158;16.464;2023-07-29T06:29:04;24.60;84.30
65044;DHT22;51617;48.158;16.464;2023-07-29T06:31:30;24.50;84.50
65044;DHT22;51617;48.158;16.464;2023-07-29T06:33:58;24.40;84.80
65044;DHT22;51617;48.158;16.464;2023-07-29T06:36:23;24.50;84.70
65044;DHT22;51617;48.158;16.464;2023-07-29T06:38:49;24.40;84.50
65044;DHT22;51617;48.158;16.464;2023-07-29T06:41:14;24.50;84.40
65044;DHT22;51617;48.158;16.464;2023-07-29T06:43:40;24.40;84.60
65044;DHT22;51617;48.158;16.464;2023-07-29T06:46:05;24.50;85.10
65044;DHT22;51617;48.158;16.464;2023-07-29T06:48:31;24.60;84.10
65044;DHT22;51617;48.158;16.464;2023-07-29T06:50:56;24.70;84.20
65044;DHT22;51617;48.158;16.464;2023-07-29T06:53:26;24.70;83.90
65044;DHT22;51617;48.158;16.464;2023-07-29T06:55:51;24.80;83.70
65044;DHT22;51617;48.158;16.464;2023-07-29T06:58:17;24.80;83.30
65044;DHT22;51617;48.158;16.464;2023-07-29T07:00:42;24.90;83.30
65044;DHT22;51617;48.158;16.464;2023-07-29T07:03:08;24.90;83.20
65044;DHT22;51617;48.158;16.464;2023-07-29T07:05:33;25.00;83.50
65044;DHT22;51617;48.158;16.464;2023-07-29T07:07:59;25.00;83.00
65044;DHT22;51617;48.158;16.464;2023-07-29T07:10:24;25.00;82.70
65044;DHT22;51617;48.158;16.464;2023-07-29T07:12:50;25.10;82.50
65044;DHT22;51617;48.158;16.464;2023-07-29T07:15:15;25.10;82.50
65044;DHT22;51617;48.158;16.464;2023-07-29T07:17:41;25.10;82.40
65044;DHT22;51617;48.158;16.464;2023-07-29T07:20:07;25.20;82.90
65044;DHT22;51617;48.158;16.464;2023-07-29T07:22:32;25.30;82.50
65044;DHT22;51617;48.158;16.464;2023-07-29T07:24:58;25.30;82.20
65044;DHT22;51617;48.158;16.464;2023-07-29T07:27:23;25.40;82.50
65044;DHT22;51617;48.158;16.464;2023-07-29T07:29:49;25.40;82.30
65044;DHT22;51617;48.158;16.464;2023-07-29T07:32:14;25.50;82.10
65044;DHT22;51617;48.158;16.464;2023-07-29T07:34:40;25.60;81.80
65044;DHT22;51617;48.158;16.464;2023-07-29T07:37:05;25.60;81.70
65044;DHT22;51617;48.158;16.464;2023-07-29T07:39:31;25.70;82.10
65044;DHT22;51617;48.158;16.464;2023-07-29T07:41:57;25.80;81.50
65044;DHT22;51617;48.158;16.464;2023-07-29T07:44:22;25.80;81.60
65044;DHT22;51617;48.158;16.464;2023-07-29T07:46:48;25.90;81.10
65044;DHT22;51617;48.158;16.464;2023-07-29T07:49:14;26.00;81.50
65044;DHT22;51617;48.158;16.464;2023-07-29T07:51:39;26.10;81.50
65044;DHT22;51617;48.158;16.464;2023-07-29T07:54:05;26.20;81.20
65044;DHT22;51617;48.158;16.464;2023-07-29T07:56:30;26.20;81.10
65044;DHT22;51617;48.158;16.464;2023-07-29T07:58:56;26.30;80.90
65044;DHT22;51617;48.158;16.464;2023-07-29T08:01:21;26.30;80.50
65044;DHT22;51617;48.158;16.464;2023-07-29T08:03:47;26.20;79.60
65044;DHT22;51617;48.158;16.464;2023-07-29T08:06:12;26.20;80.00
65044;DHT22;51617;48.158;16.464;2023-07-29T08:08:38;26.20;79.60
65044;DHT22;51617;48.158;16.464;2023-07-29T08:11:04;26.10;80.20
65044;DHT22;51617;48.158;16.464;2023-07-29T08:13:29;26.20;80.30
65044;DHT22;51617;48.158;16.464;2023-07-29T08:15:55;26.30;79.90
65044;DHT22;51617;48.158;16.464;2023-07-29T08:18:20;26.40;79.60
65044;DHT22;51617;48.158;16.464;2023-07-29T08:20:56;26.60;79.20
65044;DHT22;51617;48.158;16.464;2023-07-29T08:23:25;26.70;78.10
65044;DHT22;51617;48.158;16.464;2023-07-29T08:25:54;26.60;78.40
65044;DHT22;51617;48.158;16.464;2023-07-29T08:28:24;26.60;78.70
65044;DHT22;51617;48.158;16.464;2023-07-29T08:30:49;26.60;79.00
65044;DHT22;51617;48.158;16.464;2023-07-29T08:33:15;26.60;78.70
65044;DHT22;51617;48.158;16.464;2023-07-29T08:35:40;26.60;79.10
65044;DHT22;51617;48.158;16.464;2023-07-29T08:38:06;26.60;77.80
65044;DHT22;51617;48.158;16.464;2023-07-29T08:40:32;26.70;78.30
65044;DHT22;51617;48.158;16.464;2023-07-29T08:42:59;26.80;77.00
65044;DHT22;51617;48.158;16.464;2023-07-29T08:45:26;26.80;77.00
65044;DHT22;51617;48.158;16.464;2023-07-29T08:47:53;26.80;76.10
65044;DHT22;51617;48.158;16.464;2023-07-29T08:50:19;26.90;76.50
65044;DHT22;51617;48.158;16.464;2023-07-29T08:52:45;27.10;76.10
65044;DHT22;51617;48.158;16.464;2023-07-29T08:55:11;27.10;74.70
65044;DHT22;51617;48.158;16.464;2023-07-29T08:57:37;27.10;76.00
65044;DHT22;51617;48.158;16.464;2023-07-29T09:00:02;27.20;75.50
65044;DHT22;51617;48.158;16.464;2023-07-29T09:02:28;27.20;75.20
65044;DHT22;51617;48.158;16.464;2023-07-29T09:04:54;27.20;75.00
65044;DHT22;51617;48.158;16.464;2023-07-29T09:07:19;27.20;75.20
65044;DHT22;51617;48.158;16.464;2023-07-29T09:09:46;27.20;75.90
65044;DHT22;51617;48.158;16.464;2023-07-29T09:12:11;27.20;75.40
65044;DHT22;51617;48.158;16.464;2023-07-29T09:14:37;27.40;75.50
65044;DHT22;51617;48.158;16.464;2023-07-29T09:17:03;27.60;75.30
65044;DHT22;51617;48.158;16.464;2023-07-29T09:19:32;27.60;74.50
65044;DHT22;51617;48.158;16.464;2023-07-29T09:21:58;27.70;74.80
65044;DHT22;51617;48.158;16.464;2023-07-29T09:24:24;27.80;75.00
65044;DHT22;51617;48.158;16.464;2023-07-29T09:26:49;28.00;74.20
65044;DHT22;51617;48.158;16.464;2023-07-29T09:29:15;28.10;74.00
65044;DHT22;51617;48.158;16.464;2023-07-29T09:31:41;28.20;73.40
65044;DHT22;51617;48.158;16.464;2023-07-29T09:34:06;28.10;72.50
65044;DHT22;51617;48.158;16.464;2023-07-29T09:36:32;28.10;72.90
65044;DHT22;51617;48.158;16.464;2023-07-29T09:38:58;28.10;72.80
65044;DHT22;51617;48.158;16.464;2023-07-29T09:41:24;28.30;73.40
65044;DHT22;51617;48.158;16.464;2023-07-29T09:43:57;28.40;73.30
65044;DHT22;51617;48.158;16.464;2023-07-29T09:46:31;28.50;73.00
65044;DHT22;51617;48.158;16.464;2023-07-29T09:48:57;28.70;72.90
65044;DHT22;51617;48.158;16.464;2023-07-29T09:51:23;28.80;69.80
65044;DHT22;51617;48.158;16.464;2023-07-29T09:53:50;28.70;70.10
65044;DHT22;51617;48.158;16.464;2023-07-29T09:56:15;28.70;70.30
65044;DHT22;51617;48.158;16.464;2023-07-29T09:58:44;28.70;70.90
65044;DHT22;51617;48.158;16.464;2023-07-29T10:01:11;28.80;70.50
65044;DHT22;51617;48.158;16.464;2023-07-29T10:03:36;28.90;69.60
65044;DHT22;51617;48.158;16.464;2023-07-29T10:06:03;29.00;69.10
65044;DHT22;51617;48.158;16.464;2023-07-29T10:08:30;29.00;69.80
65044;DHT22;51617;48.158;16.464;2023-07-29T10:11:00;29.00;69.20
65044;DHT22;51617;48.158;16.464;2023-07-29T10:13:26;29.10;69.40
65044;DHT22;51617;48.158;16.464;2023-07-29T10:15:53;29.20;70.50
65044;DHT22;51617;48.158;16.464;2023-07-29T10:18:19;29.40;68.90
65044;DHT22;51617;48.158;16.464;2023-07-29T10:20:45;29.40;68.50
65044;DHT22;51617;48.158;16.464;2023-07-29T10:23:11;29.50;68.10
65044;DHT22;51617;48.158;16.464;2023-07-29T10:25:38;29.50;67.20
65044;DHT22;51617;48.158;16.464;2023-07-29T10:28:05;29.50;67.70
65044;DHT22;51617;48.158;16.464;2023-07-29T10:30:30;29.40;67.30
65044;DHT22;51617;48.158;16.464;2023-07-29T10:32:58;29.50;67.90
65044;DHT22;51617;48.158;16.464;2023-07-29T10:35:24;29.60;68.40
65044;DHT22;51617;48.158;16.464;2023-07-29T10:37:50;29.70;68.10
65044;DHT22;51617;48.158;16.464;2023-07-29T10:40:17;29.80;68.00
65044;DHT22;51617;48.158;16.464;2023-07-29T10:43:02;29.90;67.90
65044;DHT22;51617;48.158;16.464;2023-07-29T10:45:35;30.00;68.60
65044;DHT22;51617;48.158;16.464;2023-07-29T10:48:04;30.20;69.30
65044;DHT22;51617;48.158;16.464;2023-07-29T10:50:31;30.20;68.60
65044;DHT22;51617;48.158;16.464;2023-07-29T10:52:57;30.20;67.70
65044;DHT22;51617;48.158;16.464;2023-07-29T11:00:31;30.70;66.40
65044;DHT22;51617;48.158;16.464;2023-07-29T11:03:01;30.80;66.40
65044;DHT22;51617;48.158;16.464;2023-07-29T11:05:41;31.10;65.90
65044;DHT22;51617;48.158;16.464;2023-07-29T11:08:19;31.50;65.70
65044;DHT22;51617;48.158;16.464;2023-07-29T11:10:57;31.90;65.80
65044;DHT22;51617;48.158;16.464;2023-07-29T11:13:22;31.80;64.70
65044;DHT22;51617;48.158;16.464;2023-07-29T11:15:48;31.60;64.30
65044;DHT22;51617;48.158;16.464;2023-07-29T11:18:15;31.60;64.90
65044;DHT22;51617;48.158;16.464;2023-07-29T11:20:41;31.70;65.20
65044;DHT22;51617;48.158;16.464;2023-07-29T11:23:06;31.80;65.10
65044;DHT22;51617;48.158;16.464;2023-07-29T11:25:32;31.70;64.60
65044;DHT22;51617;48.158;16.464;2023-07-29T11:28:01;31.70;64.20
65044;DHT22;51617;48.158;16.464;2023-07-29T11:30:26;31.90;64.90
65044;DHT22;51617;48.158;16.464;2023-07-29T11:32:53;32.00;63.90
65044;DHT22;51617;48.158;16.464;2023-07-29T11:35:18;32.10;63.20
65044;DHT22;51617;48.158;16.464;2023-07-29T11:37:45;32.20;63.40
65044;DHT22;51617;48.158;16.464;2023-07-29T11:40:13;32.50;63.10
65044;DHT22;51617;48.158;16.464;2023-07-29T11:42:39;33.00;62.70
65044;DHT22;51617;48.158;16.464;2023-07-29T11:45:04;32.90;60.00
65044;DHT22;51617;48.158;16.464;2023-07-29T11:47:32;33.00;60.30
65044;DHT22;51617;48.158;16.464;2023-07-29T11:50:01;33.20;60.60
65044;DHT22;51617;48.158;16.464;2023-07-29T11:52:27;33.30;59.50
65044;DHT22;51617;48.158;16.464;2023-07-29T11:54:52;33.40;60.50
65044;DHT22;51617;48.158;16.464;2023-07-29T11:57:18;33.50;60.50
65044;DHT22;51617;48.158;16.464;2023-07-29T11:59:44;33.60;60.20
65044;DHT22;51617;48.158;16.464;2023-07-29T12:02:13;33.60;60.10
65044;DHT22;51617;48.158;16.464;2023-07-29T12:04:40;33.40;59.80
65044;DHT22;51617;48.158;16.464;2023-07-29T12:07:06;33.00;59.30
65044;DHT22;51617;48.158;16.464;2023-07-29T12:09:32;32.80;61.10
65044;DHT22;51617;48.158;16.464;2023-07-29T12:11:58;32.60;60.00
65044;DHT22;51617;48.158;16.464;2023-07-29T12:14:28;32.70;60.90
65044;DHT22;51617;48.158;16.464;2023-07-29T12:16:53;32.70;60.40
65044;DHT22;51617;48.158;16.464;2023-07-29T12:19:19;32.60;60.60
65044;DHT22;51617;48.158;16.464;2023-07-29T12:21:45;32.50;59.40
65044;DHT22;51617;48.158;16.464;2023-07-29T12:24:13;32.70;60.50
65044;DHT22;51617;48.158;16.464;2023-07-29T12:26:42;32.70;59.10
65044;DHT22;51617;48.158;16.464;2023-07-29T12:29:14;32.60;59.40
65044;DHT22;51617;48.158;16.464;2023-07-29T12:31:40;32.50;59.90
65044;DHT22;51617;48.158;16.464;2023-07-29T12:34:05;32.40;60.40
65044;DHT22;51617;48.158;16.464;2023-07-29T12:36:44;32.40;59.30
65044;DHT22;51617;48.158;16.464;2023-07-29T12:39:19;32.30;59.90
65044;DHT22;51617;48.158;16.464;2023-07-29T12:41:45;32.30;59.50
65044;DHT22;51617;48.158;16.464;2023-07-29T12:44:11;32.30;59.80
65044;DHT22;51617;48.158;16.464;2023-07-29T12:46:36;32.30;59.40
65044;DHT22;51617;48.158;16.464;2023-07-29T12:49:02;32.40;59.60
65044;DHT22;51617;48.158;16.464;2023-07-29T12:51:27;32.60;60.30
65044;DHT22;51617;48.158;16.464;2023-07-29T12:53:56;32.70;58.90
65044;DHT22;51617;48.158;16.464;2023-07-29T12:56:21;32.50;58.00
65044;DHT22;51617;48.158;16.464;2023-07-29T12:58:47;32.50;58.00
65044;DHT22;51617;48.158;16.464;2023-07-29T13:01:12;32.40;58.50
65044;DHT22;51617;48.158;16.464;2023-07-29T13:03:44;32.30;58.50
65044;DHT22;51617;48.158;16.464;2023-07-29T13:06:10;32.20;59.00
65044;DHT22;51617;48.158;16.464;2023-07-29T13:08:35;32.20;59.00
65044;DHT22;51617;48.158;16.464;2023-07-29T13:11:01;31.90;58.30
65044;DHT22;51617;48.158;16.464;2023-07-29T13:13:27;32.00;59.40
65044;DHT22;51617;48.158;16.464;2023-07-29T13:15:52;32.10;56.90
65044;DHT22;51617;48.158;16.464;2023-07-29T13:18:18;32.20;56.30
65044;DHT22;51617;48.158;16.464;2023-07-29T13:20:43;32.00;56.10
65044;DHT22;51617;48.158;16.464;2023-07-29T13:23:09;31.80;54.50
65044;DHT22;51617;48.158;16.464;2023-07-29T13:25:34;31.60;55.00
65044;DHT22;51617;48.158;16.464;2023-07-29T13:28:00;31.50;55.10
65044;DHT22;51617;48.158;16.464;2023-07-29T13:30:25;31.60;54.60
65044;DHT22;51617;48.158;16.464;2023-07-29T13:32:51;31.50;53.90
65044;DHT22;51617;48.158;16.464;2023-07-29T13:35:16;31.30;55.30
65044;DHT22;51617;48.158;16.464;2023-07-29T13:37:42;31.10;56.30
65044;DHT22;51617;48.158;16.464;2023-07-29T13:40:08;30.90;56.60
65044;DHT22;51617;48.158;16.464;2023-07-29T13:42:33;30.80;57.00
65044;DHT22;51617;48.158;16.464;2023-07-29T13:44:59;30.60;57.50
65044;DHT22;51617;48.158;16.464;2023-07-29T13:47:24;30.70;58.20
65044;DHT22;51617;48.158;16.464;2023-07-29T13:49:50;30.70;58.70
65044;DHT22;51617;48.158;16.464;2023-07-29T13:52:15;30.60;58.30
65044;DHT22;51617;48.158;16.464;2023-07-29T13:54:41;30.60;58.30
65044;DHT22;51617;48.158;16.464;2023-07-29T13:57:06;30.80;58.00
65044;DHT22;51617;48.158;16.464;2023-07-29T13:59:32;31.10;57.60
65044;DHT22;51617;48.158;16.464;2023-07-29T14:01:57;31.00;57.10
65044;DHT22;51617;48.158;16.464;2023-07-29T14:04:23;30.90;57.80
65044;DHT22;51617;48.158;16.464;2023-07-29T14:06:48;30.90;57.90
65044;DHT22;51617;48.158;16.464;2023-07-29T14:09:14;30.90;58.40
65044;DHT22;51617;48.158;16.464;2023-07-29T14:11:39;30.90;58.10
65044;DHT22;51617;48.158;16.464;2023-07-29T14:14:05;31.00;58.40
65044;DHT22;51617;48.158;16.464;2023-07-29T14:16:30;31.00;59.40
65044;DHT22;51617;48.158;16.464;2023-07-29T14:18:56;31.00;58.70
65044;DHT22;51617;48.158;16.464;2023-07-29T14:21:21;31.20;59.20
65044;DHT22;51617;48.158;16.464;2023-07-29T14:23:47;31.30;58.90
65044;DHT22;51617;48.158;16.464;2023-07-29T14:26:14;31.30;58.30
65044;DHT22;51617;48.158;16.464;2023-07-29T14:28:40;31.40;58.70
65044;DHT22;51617;48.158;16.464;2023-07-29T14:31:05;31.40;59.00
65044;DHT22;51617;48.158;16.464;2023-07-29T14:33:31;31.30;59.10
65044;DHT22;51617;48.158;16.464;2023-07-29T14:35:56;31.00;59.40
65044;DHT22;51617;48.158;16.464;2023-07-29T14:38:22;31.20;59.80
65044;DHT22;51617;48.158;16.464;2023-07-29T14:40:47;31.40;58.40
65044;DHT22;51617;48.158;16.464;2023-07-29T14:43:13;31.60;59.20
65044;DHT22;51617;48.158;16.464;2023-07-29T14:45:39;31.60;57.80
65044;DHT22;51617;48.158;16.464;2023-07-29T14:48:04;31.60;56.70
65044;DHT22;51617;48.158;16.464;2023-07-29T14:50:30;31.50;57.40
65044;DHT22;51617;48.158;16.464;2023-07-29T14:52:55;31.40;57.70
65044;DHT22;51617;48.158;16.464;2023-07-29T14:55:21;31.50;57.60
65044;DHT22;51617;48.158;16.464;2023-07-29T14:57:46;31.30;57.50
65044;DHT22;51617;48.158;16.464;2023-07-29T15:00:12;31.30;58.00
65044;DHT22;51617;48.158;16.464;2023-07-29T15:02:38;31.40;58.00
65044;DHT22;51617;48.158;16.464;2023-07-29T15:05:03;31.40;57.70
65044;DHT22;51617;48.158;16.464;2023-07-29T15:07:29;31.30;57.60
65044;DHT22;51617;48.158;16.464;2023-07-29T15:09:54;31.20;58.10
65044;DHT22;51617;48.158;16.464;2023-07-29T15:12:20;31.10;58.30
65044;DHT22;51617;48.158;16.464;2023-07-29T15:14:46;31.00;58.30
65044;DHT22;51617;48.158;16.464;2023-07-29T15:17:12;30.90;58.40
65044;DHT22;51617;48.158;16.464;2023-07-29T15:19:38;30.80;59.30
65044;DHT22;51617;48.158;16.464;2023-07-29T15:22:04;30.90;58.50
65044;DHT22;51617;48.158;16.464;2023-07-29T15:24:30;31.20;58.60